Time;durP1;ratioP1;P1;durP2;ratioP2;P2;SDS_P1;SDS_P2;PMS_P1;PMS_P2;Temp;Humidity;BMP_temperature;BMP_pressure;BME280_temperature;BME280_humidity;BME280_pressure;Samples;Min_cycle;Max_cycle;Signal;HPM_P1;HPM_P2
2021/04/30 00:01:26;;;;;;;32.42;9.90;;;;;;;2.23;100.00;101270.47;5169251;28;20069;-79
2021/04/30 00:03:56;;;;;;;19.15;9.88;;;;;;;2.08;100.00;101261.75;5182199;28;20037;-79
2021/04/30 00:06:27;;;;;;;22.25;10.55;;;;;;;1.96;100.00;101251.97;5168720;28;20029;-79
2021/04/30 00:08:58;;;;;;;22.58;10.98;;;;;;;1.86;100.00;101264.09;5155673;28;20080;-80
2021/04/30 00:11:28;;;;;;;22.05;9.90;;;;;;;1.72;100.00;101260.56;5170276;28;20353;-79
2021/04/30 00:13:58;;;;;;;24.20;11.05;;;;;;;1.65;100.00;101251.31;5181023;28;20066;-79
2021/04/30 00:16:29;;;;;;;20.77;11.70;;;;;;;1.59;100.00;101253.50;5171783;28;20034;-79
2021/04/30 00:18:59;;;;;;;23.23;10.55;;;;;;;1.51;100.00;101246.94;5188592;28;20037;-79
2021/04/30 00:21:30;;;;;;;21.95;11.10;;;;;;;1.44;100.00;101255.34;5170197;28;20113;-79
2021/04/30 00:24:01;;;;;;;19.60;10.13;;;;;;;1.38;100.00;101256.56;5168753;28;20033;-79
2021/04/30 00:26:32;;;;;;;20.25;10.65;;;;;;;1.34;100.00;101248.94;5168932;28;20022;-79
2021/04/30 00:29:03;;;;;;;25.42;11.48;;;;;;;1.27;100.00;101249.31;5181212;28;20026;-80
2021/04/30 00:31:34;;;;;;;22.65;10.77;;;;;;;1.18;100.00;101259.63;5169268;28;20240;-79
2021/04/30 00:34:05;;;;;;;19.25;9.90;;;;;;;1.10;100.00;101265.38;5169231;28;20423;-80
2021/04/30 00:36:35;;;;;;;23.50;10.60;;;;;;;1.01;100.00;101264.16;5180885;28;20476;-79
2021/04/30 00:39:06;;;;;;;25.58;12.20;;;;;;;0.95;100.00;101253.97;5183729;28;20036;-79
2021/04/30 00:41:38;;;;;;;19.95;10.68;;;;;;;0.90;100.00;101261.31;5179129;28;20085;-79
2021/04/30 00:44:09;;;;;;;321.60;47.33;;;;;;;0.91;100.00;101263.03;5181458;28;20023;-79
2021/04/30 00:46:40;;;;;;;29.30;13.10;;;;;;;1.01;100.00;101260.69;5179210;28;20048;-79
2021/04/30 00:49:12;;;;;;;29.33;13.43;;;;;;;1.05;100.00;101262.16;5172983;28;20034;-80
2021/04/30 00:51:42;;;;;;;27.83;10.57;;;;;;;1.12;100.00;101262.66;5187426;28;20033;-80
2021/04/30 00:54:13;;;;;;;19.90;10.05;;;;;;;1.22;100.00;101277.84;5169226;28;20030;-79
2021/04/30 00:56:44;;;;;;;18.25;9.48;;;;;;;1.37;100.00;101269.91;5177502;28;20058;-79
2021/04/30 00:59:14;;;;;;;21.25;10.98;;;;;;;1.47;100.00;101279.78;5203209;28;20392;-79
2021/04/30 01:01:45;;;;;;;30.23;12.90;;;;;;;1.45;100.00;101279.03;5188863;28;20032;-79
2021/04/30 01:04:15;;;;;;;24.63;11.30;;;;;;;1.48;100.00;101285.94;5189008;28;20041;-80
2021/04/30 01:06:46;;;;;;;20.90;10.02;;;;;;;1.27;100.00;101282.84;5174339;28;20094;-79
2021/04/30 01:09:16;;;;;;;17.38;9.80;;;;;;;1.12;100.00;101289.09;5176872;28;20480;-80
2021/04/30 01:11:48;;;;;;;20.60;10.02;;;;;;;1.00;100.00;101288.03;5165185;28;20037;-80
2021/04/30 01:14:19;;;;;;;23.58;10.93;;;;;;;1.01;100.00;101287.94;5165348;28;20395;-79
2021/04/30 01:16:51;;;;;;;29.83;12.02;;;;;;;1.01;100.00;101295.03;5182280;28;20025;-80
2021/04/30 01:19:24;;;;;;;18.42;9.93;;;;;;;0.94;100.00;101296.34;5184156;28;20092;-79
2021/04/30 01:22:00;;;;;;;23.38;11.85;;;;;;;0.92;100.00;101304.34;5163317;28;20029;-79
2021/04/30 01:24:30;;;;;;;19.35;10.18;;;;;;;0.85;100.00;101300.38;5164510;28;20026;-80
2021/04/30 01:27:01;;;;;;;25.95;11.90;;;;;;;0.89;100.00;101301.88;5164597;28;20080;-79
2021/04/30 01:29:40;;;;;;;28.73;12.38;;;;;;;0.97;100.00;101299.66;5175426;28;20038;-79
2021/04/30 01:32:11;;;;;;;23.90;11.30;;;;;;;1.00;100.00;101306.53;5174300;28;20092;-79
2021/04/30 01:34:42;;;;;;;28.90;12.20;;;;;;;1.02;100.00;101307.28;5167288;28;20032;-80
2021/04/30 01:37:12;;;;;;;23.70;12.05;;;;;;;1.11;100.00;101304.09;5165596;28;20379;-80
2021/04/30 01:39:43;;;;;;;27.52;12.52;;;;;;;1.23;100.00;101310.41;5165429;28;20472;-79
2021/04/30 01:42:14;;;;;;;26.30;13.63;;;;;;;1.32;100.00;101304.56;5165526;28;20065;-79
2021/04/30 01:44:47;;;;;;;30.92;12.65;;;;;;;1.41;100.00;101314.56;5171891;28;20058;-79
2021/04/30 01:47:19;;;;;;;28.05;12.75;;;;;;;1.49;100.00;101306.13;5170873;28;20056;-79
2021/04/30 01:49:49;;;;;;;25.30;13.18;;;;;;;1.49;100.00;101308.78;5165571;28;20471;-80
2021/04/30 01:52:22;;;;;;;21.38;11.52;;;;;;;1.48;100.00;101312.38;5181674;28;20030;-80
2021/04/30 01:54:53;;;;;;;32.38;16.98;;;;;;;1.51;100.00;101312.19;5185552;28;20093;-80
2021/04/30 01:57:23;;;;;;;26.23;13.75;;;;;;;1.69;100.00;101310.16;5176228;28;20106;-79
2021/04/30 01:59:55;;;;;;;27.92;14.48;;;;;;;1.65;100.00;101301.56;5177159;28;20483;-79
2021/04/30 02:02:26;;;;;;;25.40;11.82;;;;;;;1.60;100.00;101300.16;5171771;28;20134;-79
2021/04/30 02:04:57;;;;;;;23.52;12.00;;;;;;;1.55;100.00;101303.09;5186532;28;20425;-79
2021/04/30 02:07:27;;;;;;;23.55;11.13;;;;;;;1.45;100.00;101302.81;5184871;28;20690;-79
2021/04/30 02:10:03;;;;;;;19.35;10.18;;;;;;;1.34;100.00;101305.28;5171275;28;20027;-80
2021/04/30 02:12:33;;;;;;;;;;;;;;;1.30;100.00;101309.06;5174848;28;20125;-79
2021/04/30 02:15:05;;;;;;;21.13;11.50;;;;;;;1.27;100.00;101309.28;5179842;28;20000;-79
2021/04/30 02:17:36;;;;;;;26.40;12.60;;;;;;;1.33;100.00;101315.97;5184113;28;20029;-79
2021/04/30 02:20:09;;;;;;;28.30;14.00;;;;;;;1.42;100.00;101310.13;5170775;28;20054;-79
2021/04/30 02:22:40;;;;;;;1358.15;251.25;;;;;;;1.51;100.00;101309.53;5183364;28;20028;-79
2021/04/30 02:25:12;;;;;;;48.97;20.83;;;;;;;1.67;100.00;101299.69;5184285;28;20450;-79
2021/04/30 02:27:43;;;;;;;29.38;14.95;;;;;;;1.70;100.00;101299.47;5183665;28;20025;-79
2021/04/30 02:30:16;;;;;;;24.35;13.10;;;;;;;1.67;100.00;101298.84;5169619;28;20034;-80
2021/04/30 02:32:48;;;;;;;27.33;11.95;;;;;;;1.54;100.00;101311.97;5183768;28;20030;-80
2021/04/30 02:35:23;;;;;;;27.23;13.38;;;;;;;1.51;100.00;101305.09;5175026;28;20428;-79
2021/04/30 02:37:55;;;;;;;26.40;12.45;;;;;;;1.54;100.00;101293.47;5183362;28;20034;-80
2021/04/30 02:40:28;;;;;;;24.98;11.88;;;;;;;1.68;100.00;101293.44;5186356;28;20085;-79
2021/04/30 02:43:04;;;;;;;36.17;17.35;;;;;;;1.75;100.00;101297.38;5188496;28;20034;-79
2021/04/30 02:45:35;;;;;;;37.88;16.92;;;;;;;1.81;100.00;101304.09;5160652;28;20462;-80
2021/04/30 02:48:11;;;;;;;31.08;13.48;;;;;;;1.79;100.00;101301.53;5179153;28;20022;-79
2021/04/30 02:50:44;;;;;;;24.70;12.65;;;;;;;1.67;100.00;101301.47;5170123;28;20022;-79
2021/04/30 02:53:14;;;;;;;28.50;13.18;;;;;;;1.70;100.00;101299.47;5170021;28;20400;-79
2021/04/30 02:55:45;;;;;;;25.92;14.80;;;;;;;1.74;100.00;101302.78;5188575;28;20022;-80
2021/04/30 02:58:15;;;;;;;26.08;13.30;;;;;;;1.70;100.00;101302.13;5173458;28;20034;-80
2021/04/30 03:00:46;;;;;;;26.13;13.73;;;;;;;1.65;100.00;101298.06;5189429;28;20483;-80
2021/04/30 03:03:16;;;;;;;26.77;13.20;;;;;;;1.57;100.00;101297.72;5175512;28;20034;-79
2021/04/30 03:05:47;;;;;;;23.02;12.85;;;;;;;1.51;100.00;101296.31;5170589;28;20376;-79
2021/04/30 03:08:17;;;;;;;24.35;10.68;;;;;;;1.38;100.00;101308.59;5171044;28;20396;-79
2021/04/30 03:10:48;;;;;;;30.08;13.90;;;;;;;1.27;100.00;101304.84;5181148;28;20026;-80
2021/04/30 03:13:18;;;;;;;26.65;13.57;;;;;;;1.19;100.00;101314.19;5186361;28;20480;-80
2021/04/30 03:15:49;;;;;;;30.83;13.00;;;;;;;1.10;100.00;101315.59;5190023;28;20034;-80
2021/04/30 03:18:19;;;;;;;29.17;13.75;;;;;;;1.02;100.00;101323.16;5173194;28;20037;-80
2021/04/30 03:20:50;;;;;;;26.38;15.65;;;;;;;0.98;100.00;101318.97;5170087;28;20073;-79
2021/04/30 03:23:20;;;;;;;33.10;17.20;;;;;;;1.06;100.00;101311.44;5183528;28;20109;-79
2021/04/30 03:25:51;;;;;;;41.00;18.63;;;;;;;1.12;100.00;101307.59;5170655;28;20053;-80
2021/04/30 03:28:21;;;;;;;37.15;18.27;;;;;;;1.18;100.00;101289.53;5181395;28;20026;-79
2021/04/30 03:30:51;;;;;;;41.22;18.55;;;;;;;1.20;100.00;101285.00;5183109;28;20079;-80
2021/04/30 03:33:22;;;;;;;46.85;19.80;;;;;;;1.21;100.00;101276.16;5182883;28;20113;-80
2021/04/30 03:35:52;;;;;;;39.17;18.67;;;;;;;1.23;100.00;101278.69;5171914;28;20085;-80
2021/04/30 03:38:23;;;;;;;34.75;15.40;;;;;;;1.17;100.00;101282.56;5180966;28;20097;-81
2021/04/30 03:40:53;;;;;;;29.27;16.15;;;;;;;1.14;100.00;101285.38;5169147;28;20030;-80
2021/04/30 03:43:24;;;;;;;37.55;18.10;;;;;;;1.17;100.00;101282.56;5170096;28;20365;-80
2021/04/30 03:45:54;;;;;;;41.30;19.88;;;;;;;1.29;100.00;101284.44;5187329;28;20021;-80
2021/04/30 03:48:25;;;;;;;43.33;19.77;;;;;;;1.44;100.00;101277.34;5176506;28;20022;-80
2021/04/30 03:50:56;;;;;;;42.10;18.50;;;;;;;1.50;100.00;101268.16;5182534;28;20084;-80
2021/04/30 03:53:27;;;;;;;36.70;19.50;;;;;;;1.57;100.00;101266.00;5181544;28;20038;-78
2021/04/30 03:55:57;;;;;;;37.25;16.90;;;;;;;1.48;100.00;101270.91;5180112;28;20030;-77
2021/04/30 03:58:28;;;;;;;30.73;15.02;;;;;;;1.46;100.00;101271.97;5165967;28;20080;-77
2021/04/30 04:00:58;;;;;;;37.85;16.00;;;;;;;1.36;100.00;101269.06;5166021;28;20088;-77
2021/04/30 04:03:28;;;;;;;37.38;16.60;;;;;;;1.31;100.00;101271.13;5168222;28;20065;-77
2021/04/30 04:05:59;;;;;;;40.50;17.58;;;;;;;1.28;100.00;101271.31;5184871;28;20110;-77
2021/04/30 04:08:31;;;;;;;46.90;17.38;;;;;;;1.24;100.00;101272.44;5186203;28;20038;-76
2021/04/30 04:11:01;;;;;;;39.63;17.35;;;;;;;1.21;100.00;101270.00;5184627;28;20030;-77
2021/04/30 04:13:32;;;;;;;38.83;18.83;;;;;;;1.17;100.00;101269.34;5184421;28;20495;-78
2021/04/30 04:16:03;;;;;;;35.85;19.15;;;;;;;1.18;100.00;101265.75;5168333;28;20121;-80
2021/04/30 04:18:34;;;;;;;34.00;17.48;;;;;;;1.19;100.00;101272.72;5179311;28;20030;-79
2021/04/30 04:21:04;;;;;;;44.40;17.52;;;;;;;1.17;100.00;101268.50;5179138;28;20137;-78
2021/04/30 04:23:35;;;;;;;40.15;19.00;;;;;;;1.15;100.00;101273.88;5186487;28;20042;-80
2021/04/30 04:26:05;;;;;;;33.63;15.73;;;;;;;1.13;100.00;101274.91;5185042;28;20554;-78
2021/04/30 04:28:35;;;;;;;44.42;19.25;;;;;;;1.13;100.00;101274.91;5173560;28;20471;-80
2021/04/30 04:31:06;;;;;;;42.42;19.02;;;;;;;1.13;100.00;101273.13;5174345;28;20037;-80
2021/04/30 04:33:36;;;;;;;31.92;16.20;;;;;;;1.03;100.00;101278.13;5176959;28;20407;-80
2021/04/30 04:36:07;;;;;;;30.70;15.45;;;;;;;0.91;100.00;101285.97;5167023;28;20042;-79
2021/04/30 04:38:37;;;;;;;38.38;15.77;;;;;;;0.87;100.00;101287.09;5165625;28;20476;-80
2021/04/30 04:41:08;;;;;;;44.80;19.65;;;;;;;0.92;100.00;101290.31;5170164;28;20041;-78
2021/04/30 04:43:38;;;;;;;45.53;19.98;;;;;;;0.98;100.00;101292.56;5186206;28;20108;-79
2021/04/30 04:46:09;;;;;;;53.15;21.27;;;;;;;1.04;100.00;101297.47;5172834;28;20022;-79
2021/04/30 04:48:39;;;;;;;43.47;20.85;;;;;;;1.13;100.00;101296.06;5170010;28;20026;-80
2021/04/30 04:51:10;;;;;;;43.08;20.80;;;;;;;1.19;100.00;101309.72;5186150;28;20026;-79
2021/04/30 04:53:40;;;;;;;50.05;22.58;;;;;;;1.29;100.00;101310.88;5184020;28;20484;-79
2021/04/30 04:56:11;;;;;;;52.40;23.17;;;;;;;1.40;100.00;101314.63;5173298;28;20022;-79
2021/04/30 04:58:41;;;;;;;47.47;23.23;;;;;;;1.51;100.00;101320.97;5181112;28;20026;-79
2021/04/30 05:01:12;;;;;;;47.95;22.73;;;;;;;1.60;100.00;101330.09;5185800;28;20029;-79
2021/04/30 05:03:42;;;;;;;50.33;22.42;;;;;;;1.67;100.00;101336.72;5181219;28;20073;-78
2021/04/30 05:06:13;;;;;;;49.42;22.48;;;;;;;1.75;100.00;101337.06;5165011;28;20018;-80
2021/04/30 05:08:43;;;;;;;48.17;23.27;;;;;;;1.85;100.00;101339.97;5169790;28;20025;-79
2021/04/30 05:11:14;;;;;;;50.83;22.55;;;;;;;1.99;100.00;101339.09;5184712;28;20026;-78
2021/04/30 05:13:44;;;;;;;52.45;23.92;;;;;;;2.10;100.00;101338.38;5184620;28;20373;-79
2021/04/30 05:16:15;;;;;;;52.10;23.55;;;;;;;2.25;100.00;101326.78;5184752;28;20395;-79
2021/04/30 05:18:45;;;;;;;47.75;22.70;;;;;;;2.33;100.00;101317.41;5184469;28;20066;-79
2021/04/30 05:21:18;;;;;;;50.42;23.30;;;;;;;2.47;100.00;101319.13;5170027;28;20026;-79
2021/04/30 05:23:49;;;;;;;51.55;24.58;;;;;;;2.60;100.00;101325.28;5175901;28;20108;-79
2021/04/30 05:26:20;;;;;;;48.47;23.58;;;;;;;2.72;100.00;101326.28;5178162;28;20334;-78
2021/04/30 05:28:50;;;;;;;52.83;24.02;;;;;;;2.80;100.00;101318.66;5164668;28;20085;-78
2021/04/30 05:31:21;;;;;;;50.85;23.10;;;;;;;2.87;100.00;101329.69;5164256;28;20030;-79
2021/04/30 05:33:52;;;;;;;42.85;21.33;;;;;;;2.98;100.00;101332.44;5180257;28;20030;-79
2021/04/30 05:36:22;;;;;;;49.00;23.02;;;;;;;3.16;100.00;101332.13;5169803;28;20045;-79
2021/04/30 05:38:53;;;;;;;46.92;21.13;;;;;;;3.21;100.00;101322.03;5179293;28;20117;-79
2021/04/30 05:41:23;;;;;;;42.42;21.67;;;;;;;3.33;100.00;101314.09;5181944;28;20026;-80
2021/04/30 05:43:54;;;;;;;42.30;19.90;;;;;;;3.50;100.00;101312.03;5183491;28;20030;-80
2021/04/30 05:46:24;;;;;;;49.83;21.63;;;;;;;3.59;100.00;101319.34;5170671;28;20032;-79
2021/04/30 05:48:55;;;;;;;40.28;19.98;;;;;;;3.73;100.00;101315.72;5174330;28;20514;-79
2021/04/30 05:51:25;;;;;;;40.30;20.80;;;;;;;3.86;100.00;101329.75;5183737;28;20396;-80
2021/04/30 05:53:56;;;;;;;42.30;20.92;;;;;;;3.96;100.00;101336.09;5189966;28;20057;-79
2021/04/30 05:56:26;;;;;;;44.97;19.85;;;;;;;4.12;100.00;101341.16;5177113;28;20050;-80
2021/04/30 05:58:57;;;;;;;38.55;18.10;;;;;;;4.18;100.00;101348.69;5169223;28;20049;-80
2021/04/30 06:01:27;;;;;;;39.60;19.65;;;;;;;4.29;100.00;101347.88;5173503;28;20038;-80
2021/04/30 06:03:58;;;;;;;31.88;17.35;;;;;;;4.35;100.00;101342.09;5182833;28;20021;-80
2021/04/30 06:06:28;;;;;;;37.38;18.20;;;;;;;4.55;100.00;101337.97;5171792;28;20014;-80
2021/04/30 06:08:59;;;;;;;29.67;16.92;;;;;;;4.66;100.00;101343.31;5175447;28;20033;-79
2021/04/30 06:11:29;;;;;;;33.63;16.80;;;;;;;4.81;100.00;101350.13;5177678;28;20030;-79
2021/04/30 06:14:00;;;;;;;36.50;18.20;;;;;;;5.08;100.00;101351.66;5176987;28;20032;-79
2021/04/30 06:16:30;;;;;;;44.83;20.10;;;;;;;5.20;100.00;101342.72;5175181;28;20049;-79
2021/04/30 06:19:02;;;;;;;35.45;18.38;;;;;;;5.27;100.00;101341.28;5164449;28;20054;-79
2021/04/30 06:21:32;;;;;;;45.85;18.92;;;;;;;5.48;100.00;101330.75;5167482;28;20022;-79
2021/04/30 06:24:03;;;;;;;40.85;19.63;;;;;;;5.61;100.00;101328.78;5185013;28;20472;-79
2021/04/30 06:26:34;;;;;;;34.08;16.60;;;;;;;5.89;100.00;101330.09;5171382;28;20072;-79
2021/04/30 06:29:04;;;;;;;38.33;19.20;;;;;;;6.20;100.00;101330.28;5172616;28;20117;-82
2021/04/30 06:31:37;;;;;;;32.17;18.35;;;;;;;6.42;100.00;101326.69;5175908;28;20026;-83
2021/04/30 06:34:07;;;;;;;37.45;17.02;;;;;;;6.53;100.00;101328.47;5179192;28;20037;-83
2021/04/30 06:36:38;;;;;;;46.45;22.00;;;;;;;6.61;100.00;101329.50;5183463;28;20022;-82
2021/04/30 06:39:08;;;;;;;32.88;16.63;;;;;;;6.53;100.00;101323.16;5166661;28;20037;-82
2021/04/30 06:41:39;;;;;;;32.67;16.33;;;;;;;6.47;100.00;101327.13;5179563;28;20081;-83
2021/04/30 06:44:09;;;;;;;33.60;15.98;;;;;;;6.68;100.00;101330.69;5166182;28;20065;-83
2021/04/30 06:46:40;;;;;;;29.30;16.27;;;;;;;6.70;100.00;101331.41;5176108;28;20014;-83
2021/04/30 06:49:10;;;;;;;31.85;16.92;;;;;;;7.08;100.00;101348.66;5170746;28;20074;-83
2021/04/30 06:51:41;;;;;;;39.42;20.60;;;;;;;7.16;100.00;101345.31;5176906;28;20018;-83
2021/04/30 06:54:11;;;;;;;32.67;15.68;;;;;;;7.34;100.00;101343.72;5172733;28;20025;-83
2021/04/30 06:56:42;;;;;;;29.85;16.23;;;;;;;7.50;100.00;101343.22;5174705;28;20022;-83
2021/04/30 06:59:12;;;;;;;36.00;15.32;;;;;;;7.52;100.00;101339.44;5166959;28;20058;-83
2021/04/30 07:01:43;;;;;;;34.20;14.82;;;;;;;7.64;100.00;101334.88;5182241;28;20109;-83
2021/04/30 07:04:13;;;;;;;28.05;15.02;;;;;;;8.02;100.00;101338.59;5174128;28;20030;-83
2021/04/30 07:06:44;;;;;;;31.98;14.70;;;;;;;7.92;100.00;101338.59;5186748;28;20034;-83
2021/04/30 07:09:14;;;;;;;31.10;14.50;;;;;;;8.30;100.00;101337.81;5185556;28;20148;-83
2021/04/30 07:11:45;;;;;;;37.40;14.00;;;;;;;8.53;100.00;101340.22;5183358;28;20081;-83
2021/04/30 07:14:15;;;;;;;27.35;14.43;;;;;;;8.71;100.00;101341.22;5176618;28;20029;-83
2021/04/30 07:16:46;;;;;;;34.50;14.40;;;;;;;8.94;100.00;101339.09;5173920;28;20546;-83
2021/04/30 07:19:16;;;;;;;28.67;13.80;;;;;;;8.95;100.00;101337.25;5175462;28;20018;-84
2021/04/30 07:21:47;;;;;;;30.05;13.25;;;;;;;8.77;100.00;101334.44;5176710;28;20019;-85
2021/04/30 07:24:17;;;;;;;32.92;15.73;;;;;;;9.03;100.00;101343.56;5178867;28;20182;-84
2021/04/30 07:26:48;;;;;;;30.02;14.68;;;;;;;9.23;100.00;101336.31;5173323;28;20033;-83
2021/04/30 07:29:18;;;;;;;22.38;13.13;;;;;;;9.23;100.00;101332.78;5189190;28;20523;-84
2021/04/30 07:31:49;;;;;;;27.63;13.80;;;;;;;9.34;100.00;101338.00;5189476;28;20018;-83
2021/04/30 07:34:19;;;;;;;28.38;14.23;;;;;;;9.23;100.00;101335.47;5188719;28;20018;-84
2021/04/30 07:36:50;;;;;;;30.73;13.30;;;;;;;9.39;100.00;101335.72;5181227;28;20041;-83
2021/04/30 07:39:20;;;;;;;25.38;13.63;;;;;;;9.17;100.00;101336.91;5168778;28;20034;-84
2021/04/30 07:41:53;;;;;;;24.80;11.82;;;;;;;9.16;100.00;101339.72;5178511;28;20084;-84
2021/04/30 07:44:23;;;;;;;30.90;12.48;;;;;;;9.37;100.00;101344.88;5175724;28;20430;-84
2021/04/30 07:46:54;;;;;;;36.22;12.73;;;;;;;9.53;100.00;101337.06;5187115;28;20026;-83
2021/04/30 07:49:25;;;;;;;25.60;11.27;;;;;;;9.58;100.00;101348.16;5173224;28;20025;-84
2021/04/30 07:51:56;;;;;;;22.10;11.25;;;;;;;9.56;100.00;101344.81;5189153;28;20045;-81
2021/04/30 07:54:26;;;;;;;35.50;11.30;;;;;;;9.63;100.00;101353.09;5171246;28;20031;-86
2021/04/30 07:56:57;;;;;;;182.48;68.18;;;;;;;9.53;100.00;101353.13;5157206;28;20082;-82
2021/04/30 07:59:29;;;;;;;32.10;14.70;;;;;;;9.71;100.00;101351.38;5168569;28;20034;-82
2021/04/30 08:02:00;;;;;;;26.48;12.90;;;;;;;9.66;100.00;101355.47;5185473;28;20029;-82
2021/04/30 08:04:30;;;;;;;26.23;12.75;;;;;;;9.47;100.00;101345.69;5179813;28;20077;-81
2021/04/30 08:07:01;;;;;;;22.55;12.88;;;;;;;9.49;100.00;101355.28;5183640;28;20037;-82
2021/04/30 08:09:31;;;;;;;29.83;13.70;;;;;;;9.57;100.00;101358.03;5180706;28;20057;-84
2021/04/30 08:12:02;;;;;;;24.60;12.77;;;;;;;9.55;100.00;101353.84;5169405;28;20026;-83
2021/04/30 08:14:32;;;;;;;21.88;12.20;;;;;;;9.65;100.00;101356.47;5168790;28;20092;-82
2021/04/30 08:17:03;;;;;;;25.15;11.90;;;;;;;9.65;100.00;101357.31;5175287;28;20041;-82
2021/04/30 08:19:33;;;;;;;32.30;12.13;;;;;;;9.81;100.00;101359.38;5187843;28;20468;-82
2021/04/30 08:22:04;;;;;;;25.10;11.07;;;;;;;9.98;100.00;101357.72;5189166;28;20128;-81
2021/04/30 08:24:34;;;;;;;25.88;11.13;;;;;;;9.79;100.00;101354.16;5188311;28;20037;-82
2021/04/30 08:27:06;;;;;;;23.60;11.43;;;;;;;9.89;100.00;101354.13;5168216;28;20019;-82
2021/04/30 08:29:36;;;;;;;23.13;12.20;;;;;;;9.82;100.00;101353.84;5168459;28;20388;-82
2021/04/30 08:32:06;;;;;;;29.63;11.85;;;;;;;10.07;100.00;101357.66;5169480;28;20027;-82
2021/04/30 08:34:37;;;;;;;25.25;11.82;;;;;;;10.13;100.00;101356.19;5182003;28;20034;-81
2021/04/30 08:37:08;;;;;;;27.48;12.07;;;;;;;10.43;100.00;101365.75;5195070;28;20026;-82
2021/04/30 08:39:40;;;;;;;22.33;12.13;;;;;;;10.45;100.00;101363.78;5188990;28;20029;-81
2021/04/30 08:42:11;;;;;;;29.30;12.30;;;;;;;10.68;100.00;101363.31;5176584;28;20030;-81
2021/04/30 08:44:41;;;;;;;23.75;12.25;;;;;;;10.89;100.00;101363.81;5182680;28;20536;-81
2021/04/30 08:47:18;;;;;;;25.42;11.85;;;;;;;10.86;100.00;101364.16;5168486;28;20038;-80
2021/04/30 08:49:53;;;;;;;24.88;12.30;;;;;;;11.05;100.00;101365.81;5178564;28;20567;-82
2021/04/30 08:52:23;;;;;;;26.10;15.35;;;;;;;11.04;100.00;101373.00;5185482;28;20116;-81
2021/04/30 08:54:57;;;;;;;20.75;12.32;;;;;;;11.10;100.00;101376.94;5167993;28;20164;-81
2021/04/30 08:57:27;;;;;;;27.10;11.05;;;;;;;10.83;100.00;101384.06;5174302;28;20083;-80
2021/04/30 09:00:00;;;;;;;22.55;10.02;;;;;;;10.53;100.00;101379.94;5189229;28;20551;-81
2021/04/30 09:02:32;;;;;;;24.77;10.23;;;;;;;10.26;100.00;101378.19;5183250;28;20042;-79
2021/04/30 09:05:03;;;;;;;17.08;10.80;;;;;;;10.05;100.00;101386.47;5184668;28;20036;-81
2021/04/30 09:07:40;;;;;;;26.73;10.52;;;;;;;9.96;100.00;101382.00;5180210;28;20141;-80
2021/04/30 09:10:13;;;;;;;21.08;11.18;;;;;;;9.92;100.00;101385.97;5169118;28;20038;-80
2021/04/30 09:12:49;;;;;;;28.95;12.20;;;;;;;9.96;100.00;101383.84;5183463;28;20026;-80
2021/04/30 09:15:21;;;;;;;24.70;11.27;;;;;;;10.06;100.00;101390.81;5183717;28;20022;-80
2021/04/30 09:17:52;;;;;;;19.75;10.98;;;;;;;10.08;100.00;101386.13;5168252;28;20498;-81
2021/04/30 09:20:22;;;;;;;22.02;10.85;;;;;;;9.99;100.00;101386.19;5167296;28;20026;-82
2021/04/30 09:22:53;;;;;;;19.33;10.73;;;;;;;10.01;100.00;101378.88;5181030;28;20079;-81
2021/04/30 09:25:23;;;;;;;33.78;20.65;;;;;;;10.24;100.00;101385.53;5181216;28;20069;-83
2021/04/30 09:27:55;;;;;;;32.40;15.68;;;;;;;10.46;100.00;101373.53;5168382;28;20138;-82
2021/04/30 09:30:26;;;;;;;21.80;11.77;;;;;;;10.61;100.00;101377.34;5168741;28;20464;-83
2021/04/30 09:33:08;;;;;;;23.10;11.68;;;;;;;11.05;100.00;101379.25;5179984;28;20030;-83
2021/04/30 09:35:42;;;;;;;20.38;11.65;;;;;;;11.28;100.00;101376.88;5166915;28;20502;-82
2021/04/30 09:38:16;;;;;;;22.42;11.80;;;;;;;11.55;100.00;101379.41;5167454;28;20084;-83
2021/04/30 09:40:52;;;;;;;22.80;10.80;;;;;;;11.54;100.00;101383.06;5167441;28;20053;-82
2021/04/30 09:43:23;;;;;;;23.50;9.82;;;;;;;11.86;100.00;101368.16;5178295;28;20034;-81
2021/04/30 09:45:53;;;;;;;20.52;11.10;;;;;;;12.10;99.37;101368.25;5169112;28;20057;-83
2021/04/30 09:48:24;;;;;;;22.80;10.15;;;;;;;12.18;95.08;101362.03;5172739;28;20042;-82
2021/04/30 09:50:54;;;;;;;24.23;11.25;;;;;;;12.24;85.23;101355.13;5185286;28;20022;-80
2021/04/30 09:53:27;;;;;;;26.27;12.00;;;;;;;12.27;91.77;101354.81;5174717;28;20030;-82
2021/04/30 09:56:02;;;;;;;23.73;11.57;;;;;;;11.93;86.50;101353.03;5166935;28;20054;-82
2021/04/30 09:58:43;;;;;;;21.15;10.73;;;;;;;12.05;99.02;101350.88;5179433;28;20576;-81
2021/04/30 10:01:22;;;;;;;20.00;10.98;;;;;;;12.01;84.16;101353.06;5177036;28;20026;-82
2021/04/30 10:03:52;;;;;;;16.85;10.50;;;;;;;12.15;73.50;101354.31;5165098;28;20327;-83
2021/04/30 10:06:23;;;;;;;25.13;11.23;;;;;;;12.12;81.90;101347.38;5164735;28;20061;-82
2021/04/30 10:09:05;;;;;;;23.13;10.38;;;;;;;12.24;79.76;101345.22;5183107;28;20030;-80
2021/04/30 10:11:36;;;;;;;22.08;12.75;;;;;;;12.64;76.46;101346.28;5186250;28;20142;-85
2021/04/30 10:14:06;;;;;;;23.00;12.98;;;;;;;12.59;72.38;101338.72;5174924;28;20109;-80
2021/04/30 10:16:37;;;;;;;20.42;11.27;;;;;;;12.83;79.97;101339.72;5162296;28;20480;-79
2021/04/30 10:19:07;;;;;;;26.90;13.57;;;;;;;12.99;96.88;101338.88;5173400;28;20480;-81
2021/04/30 10:21:41;;;;;;;24.17;12.38;;;;;;;13.19;68.93;101340.19;5176045;28;20033;-80
2021/04/30 10:24:15;;;;;;;23.17;11.35;;;;;;;13.13;66.48;101333.63;5174825;28;20391;-80
2021/04/30 10:26:46;;;;;;;18.45;10.90;;;;;;;13.14;64.67;101335.31;5177149;28;20050;-84
2021/04/30 10:29:23;;;;;;;20.00;11.20;;;;;;;12.95;64.20;101330.28;5165450;28;20061;-81
2021/04/30 10:31:56;;;;;;;19.63;11.45;;;;;;;12.73;76.66;101326.44;5175379;28;20022;-81
2021/04/30 10:34:30;;;;;;;22.48;11.82;;;;;;;12.68;73.93;101318.88;5188207;28;20030;-80
2021/04/30 10:37:02;;;;;;;17.98;11.32;;;;;;;13.14;84.02;101327.22;5189227;28;20026;-82
2021/04/30 10:39:35;;;;;;;21.27;11.32;;;;;;;13.36;62.53;101327.56;5191005;28;20041;-82
2021/04/30 10:42:13;;;;;;;21.63;11.32;;;;;;;13.44;63.10;101320.28;5179438;28;20030;-81
2021/04/30 10:44:44;;;;;;;26.58;12.57;;;;;;;13.49;57.90;101330.53;5175878;28;20032;-81
2021/04/30 10:47:21;;;;;;;20.10;11.32;;;;;;;13.58;58.38;101326.81;5181203;28;20076;-81
2021/04/30 10:50:10;;;;;;;23.70;11.57;;;;;;;13.52;57.13;101324.81;5164751;28;20081;-83
2021/04/30 10:52:41;;;;;;;18.75;11.27;;;;;;;13.39;56.57;101321.81;5168115;28;20065;-82
2021/04/30 10:55:16;;;;;;;18.02;11.48;;;;;;;13.93;54.36;101314.69;5179334;28;20060;-83
2021/04/30 10:57:57;;;;;;;18.95;10.38;;;;;;;14.24;53.89;101306.56;5183142;28;20038;-82
2021/04/30 11:00:40;;;;;;;24.00;10.60;;;;;;;14.73;47.29;101303.53;5199008;28;20046;-83
2021/04/30 11:03:15;;;;;;;24.02;12.13;;;;;;;14.49;50.67;101309.13;5206530;28;20113;-83
2021/04/30 11:05:59;;;;;;;20.25;11.10;;;;;;;14.46;50.52;101298.66;5168664;28;20030;-83
2021/04/30 11:08:49;;;;;;;23.58;11.35;;;;;;;14.79;48.16;101301.13;5194104;28;20025;-83
2021/04/30 11:11:34;;;;;;;19.23;10.85;;;;;;;14.70;48.94;101301.16;5179957;28;20111;-83
2021/04/30 11:14:18;;;;;;;18.42;10.95;;;;;;;14.82;51.09;101288.09;5160574;28;20036;-85
2021/04/30 11:16:50;;;;;;;17.50;10.55;;;;;;;14.88;51.18;101297.31;5166834;28;20035;-85
2021/04/30 11:19:23;;;;;;;22.83;10.95;;;;;;;14.53;51.12;101299.66;5166777;28;20026;-84
2021/04/30 11:21:56;;;;;;;19.88;12.02;;;;;;;14.80;53.40;101292.81;5174336;28;20324;-84
2021/04/30 11:24:35;;;;;;;24.20;14.40;;;;;;;14.86;48.47;101285.84;5174687;28;20131;-84
2021/04/30 11:27:17;;;;;;;20.17;12.38;;;;;;;15.18;53.35;101288.22;5177606;28;20348;-84
2021/04/30 11:29:48;;;;;;;20.83;11.98;;;;;;;15.22;50.73;101296.81;5192092;28;20064;-85